Bainville, Montana
Current Conditions -  °F | °C
As of 3:52 AM on Wednesday 26 Nov 2014 (Local Time) from KISN Reporting Station
Light Snow Light Snow  
Wind Chill:   Ceiling: 3600
Heat Index: 15°   Visibility: 4mi
Dew Point: 10°   Wind: 10mph
Humidity: 80%   Direction: 10°N
Pressure: 30.25"   Gusts: NA
Location:  48.14°N, 104.22°W
Report Text: KISN 261052Z AUTO 01009KT 4SM -SN OVC036 M09/M12 A3025 RMK AO2 SLP280 P0000 T10941122
Loading
Personal Weather Stations






























Interactive Weather Map New forecast layout! Learn more

10-Day Weather Forecast

Advertisements
Track Severe Weather on mobile